Terminal Aerodrome Forecast
Issued by NWS

Home | Current Version | Previous Version | Text Only | Print | Product List | Glossary On
Versions: 1 2 3 4 5 6 7 8 9 10 11 12 13 14
000
FTUS46 KSTO 242300
TAFRBL
TAF
KRBL 242320Z 2500/2524 16010KT P6SM -SHRA SCT030 BKN060
     FM250500 18008KT P6SM FEW030 OVC050
     FM251100 18006KT P6SM VCSH SCT030 OVC050
     FM251500 17006KT P6SM -SHRA SCT030 OVC050=

USA.gov is the U.S. government's official web portal to all federal, state and local government web resources and services.